sensor_id;sensor_type;location;lat;lon;timestamp;P1;durP1;ratioP1;P2;durP2;ratioP2
55146;SDS011;41039;49.830;23.988;2022-09-09T00:01:59;19.92;;;11.40;;
55146;SDS011;41039;49.830;23.988;2022-09-09T00:04:29;20.98;;;11.00;;
55146;SDS011;41039;49.830;23.988;2022-09-09T00:09:30;18.35;;;11.57;;
55146;SDS011;41039;49.830;23.988;2022-09-09T00:14:51;17.27;;;10.70;;
55146;SDS011;41039;49.830;23.988;2022-09-09T00:20:14;17.85;;;11.38;;
55146;SDS011;41039;49.830;23.988;2022-09-09T00:22:47;16.40;;;11.15;;
55146;SDS011;41039;49.830;23.988;2022-09-09T00:25:15;19.15;;;10.82;;
55146;SDS011;41039;49.830;23.988;2022-09-09T00:27:48;19.15;;;10.60;;
55146;SDS011;41039;49.830;23.988;2022-09-09T00:32:39;16.30;;;11.00;;
55146;SDS011;41039;49.830;23.988;2022-09-09T00:37:35;19.10;;;10.50;;
55146;SDS011;41039;49.830;23.988;2022-09-09T00:40:02;18.38;;;11.15;;
55146;SDS011;41039;49.830;23.988;2022-09-09T00:42:42;19.10;;;11.55;;
55146;SDS011;41039;49.830;23.988;2022-09-09T00:45:16;15.88;;;11.18;;
55146;SDS011;41039;49.830;23.988;2022-09-09T00:55:54;16.70;;;9.75;;
55146;SDS011;41039;49.830;23.988;2022-09-09T00:58:21;16.73;;;9.82;;
55146;SDS011;41039;49.830;23.988;2022-09-09T01:00:50;16.85;;;10.27;;
55146;SDS011;41039;49.830;23.988;2022-09-09T01:11:03;15.57;;;9.55;;
55146;SDS011;41039;49.830;23.988;2022-09-09T01:13:33;15.05;;;9.65;;
55146;SDS011;41039;49.830;23.988;2022-09-09T01:16:00;15.68;;;9.95;;
55146;SDS011;41039;49.830;23.988;2022-09-09T01:18:37;17.00;;;9.43;;
55146;SDS011;41039;49.830;23.988;2022-09-09T01:23:37;16.80;;;9.60;;
55146;SDS011;41039;49.830;23.988;2022-09-09T01:28:50;16.25;;;8.98;;
55146;SDS011;41039;49.830;23.988;2022-09-09T01:31:22;13.93;;;9.02;;
55146;SDS011;41039;49.830;23.988;2022-09-09T01:33:48;13.05;;;9.20;;
55146;SDS011;41039;49.830;23.988;2022-09-09T01:36:21;13.95;;;9.25;;
55146;SDS011;41039;49.830;23.988;2022-09-09T01:38:49;14.32;;;8.88;;
55146;SDS011;41039;49.830;23.988;2022-09-09T01:41:14;17.80;;;9.48;;
55146;SDS011;41039;49.830;23.988;2022-09-09T01:43:39;13.68;;;8.18;;
55146;SDS011;41039;49.830;23.988;2022-09-09T01:46:04;13.20;;;8.13;;
55146;SDS011;41039;49.830;23.988;2022-09-09T01:48:30;15.95;;;8.07;;
55146;SDS011;41039;49.830;23.988;2022-09-09T01:50:55;14.48;;;8.15;;
55146;SDS011;41039;49.830;23.988;2022-09-09T01:53:21;11.63;;;7.20;;
55146;SDS011;41039;49.830;23.988;2022-09-09T01:56:02;14.50;;;8.00;;
55146;SDS011;41039;49.830;23.988;2022-09-09T02:03:50;12.80;;;7.85;;
55146;SDS011;41039;49.830;23.988;2022-09-09T02:06:24;9.95;;;7.30;;
55146;SDS011;41039;49.830;23.988;2022-09-09T02:08:52;12.65;;;7.63;;
55146;SDS011;41039;49.830;23.988;2022-09-09T02:11:18;13.70;;;7.50;;
55146;SDS011;41039;49.830;23.988;2022-09-09T02:13:45;11.60;;;7.13;;
55146;SDS011;41039;49.830;23.988;2022-09-09T02:21:41;13.43;;;7.38;;
55146;SDS011;41039;49.830;23.988;2022-09-09T02:24:07;11.32;;;6.57;;
55146;SDS011;41039;49.830;23.988;2022-09-09T02:26:35;14.13;;;7.55;;
55146;SDS011;41039;49.830;23.988;2022-09-09T02:29:02;9.88;;;6.65;;
55146;SDS011;41039;49.830;23.988;2022-09-09T02:31:28;13.93;;;6.57;;
55146;SDS011;41039;49.830;23.988;2022-09-09T02:33:55;10.35;;;6.40;;
55146;SDS011;41039;49.830;23.988;2022-09-09T02:36:22;11.55;;;6.68;;
55146;SDS011;41039;49.830;23.988;2022-09-09T02:38:48;11.27;;;6.82;;
55146;SDS011;41039;49.830;23.988;2022-09-09T02:41:16;10.18;;;6.85;;
55146;SDS011;41039;49.830;23.988;2022-09-09T02:43:42;13.00;;;7.05;;
55146;SDS011;41039;49.830;23.988;2022-09-09T02:51:33;11.52;;;6.80;;
55146;SDS011;41039;49.830;23.988;2022-09-09T02:54:10;8.95;;;6.40;;
55146;SDS011;41039;49.830;23.988;2022-09-09T02:56:42;10.48;;;6.30;;
55146;SDS011;41039;49.830;23.988;2022-09-09T02:59:08;9.90;;;6.38;;
55146;SDS011;41039;49.830;23.988;2022-09-09T03:01:34;10.48;;;6.65;;
55146;SDS011;41039;49.830;23.988;2022-09-09T03:04:00;12.82;;;6.22;;
55146;SDS011;41039;49.830;23.988;2022-09-09T03:06:26;9.77;;;5.95;;
55146;SDS011;41039;49.830;23.988;2022-09-09T03:08:52;12.38;;;6.28;;
55146;SDS011;41039;49.830;23.988;2022-09-09T03:11:17;9.32;;;6.32;;
55146;SDS011;41039;49.830;23.988;2022-09-09T03:13:42;11.93;;;6.10;;
55146;SDS011;41039;49.830;23.988;2022-09-09T03:16:08;10.18;;;5.70;;
55146;SDS011;41039;49.830;23.988;2022-09-09T03:18:33;10.52;;;6.05;;
55146;SDS011;41039;49.830;23.988;2022-09-09T03:20:59;10.13;;;5.97;;
55146;SDS011;41039;49.830;23.988;2022-09-09T03:23:24;9.02;;;5.60;;
55146;SDS011;41039;49.830;23.988;2022-09-09T03:25:50;10.82;;;5.68;;
55146;SDS011;41039;49.830;23.988;2022-09-09T03:28:16;14.00;;;6.43;;
55146;SDS011;41039;49.830;23.988;2022-09-09T03:30:41;10.07;;;5.63;;
55146;SDS011;41039;49.830;23.988;2022-09-09T03:33:07;10.23;;;6.03;;
55146;SDS011;41039;49.830;23.988;2022-09-09T03:35:32;9.95;;;5.68;;
55146;SDS011;41039;49.830;23.988;2022-09-09T03:37:57;11.40;;;5.70;;
55146;SDS011;41039;49.830;23.988;2022-09-09T03:40:22;9.68;;;5.57;;
55146;SDS011;41039;49.830;23.988;2022-09-09T03:42:48;9.95;;;6.13;;
55146;SDS011;41039;49.830;23.988;2022-09-09T03:45:13;8.25;;;5.93;;
55146;SDS011;41039;49.830;23.988;2022-09-09T03:47:39;9.38;;;5.68;;
55146;SDS011;41039;49.830;23.988;2022-09-09T03:50:05;12.38;;;6.07;;
55146;SDS011;41039;49.830;23.988;2022-09-09T03:52:34;9.05;;;5.78;;
55146;SDS011;41039;49.830;23.988;2022-09-09T03:55:00;10.25;;;6.05;;
55146;SDS011;41039;49.830;23.988;2022-09-09T03:57:26;9.93;;;6.00;;
55146;SDS011;41039;49.830;23.988;2022-09-09T03:59:51;9.18;;;5.70;;
55146;SDS011;41039;49.830;23.988;2022-09-09T04:02:17;9.82;;;5.68;;
55146;SDS011;41039;49.830;23.988;2022-09-09T04:04:42;12.20;;;6.30;;
55146;SDS011;41039;49.830;23.988;2022-09-09T04:07:07;11.07;;;6.05;;
55146;SDS011;41039;49.830;23.988;2022-09-09T04:09:33;10.13;;;5.90;;
55146;SDS011;41039;49.830;23.988;2022-09-09T04:11:58;12.77;;;5.88;;
55146;SDS011;41039;49.830;23.988;2022-09-09T04:14:24;9.80;;;5.72;;
55146;SDS011;41039;49.830;23.988;2022-09-09T04:16:53;9.68;;;5.95;;
55146;SDS011;41039;49.830;23.988;2022-09-09T04:19:19;12.07;;;6.00;;
55146;SDS011;41039;49.830;23.988;2022-09-09T04:21:44;10.93;;;5.38;;
55146;SDS011;41039;49.830;23.988;2022-09-09T04:24:09;10.77;;;6.38;;
55146;SDS011;41039;49.830;23.988;2022-09-09T04:26:35;11.27;;;6.10;;
55146;SDS011;41039;49.830;23.988;2022-09-09T04:29:01;12.02;;;8.48;;
55146;SDS011;41039;49.830;23.988;2022-09-09T04:31:27;10.45;;;5.90;;
55146;SDS011;41039;49.830;23.988;2022-09-09T04:33:52;8.73;;;5.53;;
55146;SDS011;41039;49.830;23.988;2022-09-09T04:36:17;11.13;;;5.78;;
55146;SDS011;41039;49.830;23.988;2022-09-09T04:38:44;11.40;;;5.97;;
55146;SDS011;41039;49.830;23.988;2022-09-09T04:41:09;8.38;;;5.22;;
55146;SDS011;41039;49.830;23.988;2022-09-09T04:43:36;8.15;;;5.55;;
55146;SDS011;41039;49.830;23.988;2022-09-09T04:46:02;12.68;;;6.00;;
55146;SDS011;41039;49.830;23.988;2022-09-09T04:48:27;9.05;;;6.07;;
55146;SDS011;41039;49.830;23.988;2022-09-09T04:50:56;11.27;;;6.25;;
55146;SDS011;41039;49.830;23.988;2022-09-09T04:53:21;9.90;;;5.47;;
55146;SDS011;41039;49.830;23.988;2022-09-09T04:55:47;10.52;;;5.47;;
55146;SDS011;41039;49.830;23.988;2022-09-09T04:58:13;11.55;;;6.32;;
55146;SDS011;41039;49.830;23.988;2022-09-09T05:00:39;9.32;;;6.32;;
55146;SDS011;41039;49.830;23.988;2022-09-09T05:03:04;9.40;;;6.45;;
55146;SDS011;41039;49.830;23.988;2022-09-09T05:05:30;11.52;;;7.13;;
55146;SDS011;41039;49.830;23.988;2022-09-09T05:08:00;9.85;;;6.15;;
55146;SDS011;41039;49.830;23.988;2022-09-09T05:10:25;10.02;;;6.55;;
55146;SDS011;41039;49.830;23.988;2022-09-09T05:12:54;11.77;;;6.38;;
55146;SDS011;41039;49.830;23.988;2022-09-09T05:15:19;14.40;;;6.40;;
55146;SDS011;41039;49.830;23.988;2022-09-09T05:17:46;16.00;;;7.95;;
55146;SDS011;41039;49.830;23.988;2022-09-09T05:20:11;13.40;;;7.32;;
55146;SDS011;41039;49.830;23.988;2022-09-09T05:22:37;11.38;;;7.82;;
55146;SDS011;41039;49.830;23.988;2022-09-09T05:25:02;11.32;;;7.82;;
55146;SDS011;41039;49.830;23.988;2022-09-09T05:27:28;11.57;;;7.28;;
55146;SDS011;41039;49.830;23.988;2022-09-09T05:29:53;11.95;;;7.22;;
55146;SDS011;41039;49.830;23.988;2022-09-09T05:32:18;10.68;;;7.40;;
55146;SDS011;41039;49.830;23.988;2022-09-09T05:34:43;12.95;;;7.95;;
55146;SDS011;41039;49.830;23.988;2022-09-09T05:37:09;11.88;;;6.97;;
55146;SDS011;41039;49.830;23.988;2022-09-09T05:39:34;10.05;;;7.25;;
55146;SDS011;41039;49.830;23.988;2022-09-09T05:42:01;12.55;;;8.50;;
55146;SDS011;41039;49.830;23.988;2022-09-09T05:44:27;14.18;;;8.45;;
55146;SDS011;41039;49.830;23.988;2022-09-09T05:46:53;18.45;;;10.07;;
55146;SDS011;41039;49.830;23.988;2022-09-09T05:49:19;11.13;;;7.72;;
55146;SDS011;41039;49.830;23.988;2022-09-09T05:51:44;13.25;;;7.65;;
55146;SDS011;41039;49.830;23.988;2022-09-09T05:54:09;13.70;;;7.72;;
55146;SDS011;41039;49.830;23.988;2022-09-09T05:56:35;14.88;;;10.32;;
55146;SDS011;41039;49.830;23.988;2022-09-09T05:59:00;13.02;;;8.75;;
55146;SDS011;41039;49.830;23.988;2022-09-09T06:01:30;11.90;;;7.93;;
55146;SDS011;41039;49.830;23.988;2022-09-09T06:03:55;12.80;;;8.98;;
55146;SDS011;41039;49.830;23.988;2022-09-09T06:06:29;15.98;;;8.80;;
55146;SDS011;41039;49.830;23.988;2022-09-09T06:08:55;14.57;;;7.85;;
55146;SDS011;41039;49.830;23.988;2022-09-09T06:11:29;11.80;;;7.30;;
55146;SDS011;41039;49.830;23.988;2022-09-09T06:13:56;11.38;;;8.40;;
55146;SDS011;41039;49.830;23.988;2022-09-09T06:16:22;13.13;;;7.78;;
55146;SDS011;41039;49.830;23.988;2022-09-09T06:18:51;13.77;;;7.78;;
55146;SDS011;41039;49.830;23.988;2022-09-09T06:21:18;17.40;;;9.32;;
55146;SDS011;41039;49.830;23.988;2022-09-09T06:23:45;15.93;;;8.68;;
55146;SDS011;41039;49.830;23.988;2022-09-09T06:26:11;18.25;;;9.55;;
55146;SDS011;41039;49.830;23.988;2022-09-09T06:28:37;15.15;;;9.07;;
55146;SDS011;41039;49.830;23.988;2022-09-09T06:31:03;15.85;;;10.82;;
55146;SDS011;41039;49.830;23.988;2022-09-09T06:33:33;11.80;;;9.20;;
55146;SDS011;41039;49.830;23.988;2022-09-09T06:35:59;17.80;;;10.98;;
55146;SDS011;41039;49.830;23.988;2022-09-09T06:38:25;13.25;;;8.48;;
55146;SDS011;41039;49.830;23.988;2022-09-09T06:40:54;15.23;;;9.75;;
55146;SDS011;41039;49.830;23.988;2022-09-09T06:43:20;14.00;;;9.30;;
55146;SDS011;41039;49.830;23.988;2022-09-09T06:45:59;13.85;;;9.10;;
55146;SDS011;41039;49.830;23.988;2022-09-09T06:48:25;15.57;;;9.02;;
55146;SDS011;41039;49.830;23.988;2022-09-09T06:50:51;17.60;;;10.55;;
55146;SDS011;41039;49.830;23.988;2022-09-09T06:53:17;13.05;;;9.85;;
55146;SDS011;41039;49.830;23.988;2022-09-09T06:55:44;12.75;;;8.88;;
55146;SDS011;41039;49.830;23.988;2022-09-09T06:58:09;16.23;;;9.25;;
55146;SDS011;41039;49.830;23.988;2022-09-09T07:00:35;11.00;;;6.97;;
55146;SDS011;41039;49.830;23.988;2022-09-09T07:03:02;15.15;;;9.43;;
55146;SDS011;41039;49.830;23.988;2022-09-09T07:05:28;10.93;;;8.02;;
55146;SDS011;41039;49.830;23.988;2022-09-09T07:07:53;15.32;;;8.38;;
55146;SDS011;41039;49.830;23.988;2022-09-09T07:10:18;11.55;;;7.97;;
55146;SDS011;41039;49.830;23.988;2022-09-09T07:12:44;14.32;;;8.43;;
55146;SDS011;41039;49.830;23.988;2022-09-09T07:15:09;12.82;;;7.82;;
55146;SDS011;41039;49.830;23.988;2022-09-09T07:17:34;11.35;;;7.32;;
55146;SDS011;41039;49.830;23.988;2022-09-09T07:20:00;9.98;;;7.03;;
55146;SDS011;41039;49.830;23.988;2022-09-09T07:22:27;11.70;;;7.05;;
55146;SDS011;41039;49.830;23.988;2022-09-09T07:24:52;15.07;;;7.53;;
55146;SDS011;41039;49.830;23.988;2022-09-09T07:27:17;10.48;;;7.10;;
55146;SDS011;41039;49.830;23.988;2022-09-09T07:29:43;11.10;;;6.97;;
55146;SDS011;41039;49.830;23.988;2022-09-09T07:32:08;10.75;;;7.40;;
55146;SDS011;41039;49.830;23.988;2022-09-09T07:34:33;12.52;;;7.40;;
55146;SDS011;41039;49.830;23.988;2022-09-09T07:36:59;13.95;;;8.15;;
55146;SDS011;41039;49.830;23.988;2022-09-09T07:39:24;10.13;;;7.53;;
55146;SDS011;41039;49.830;23.988;2022-09-09T07:41:49;15.10;;;8.52;;
55146;SDS011;41039;49.830;23.988;2022-09-09T07:44:17;9.82;;;6.53;;
55146;SDS011;41039;49.830;23.988;2022-09-09T07:46:42;11.77;;;6.85;;
55146;SDS011;41039;49.830;23.988;2022-09-09T07:49:08;12.85;;;7.18;;
55146;SDS011;41039;49.830;23.988;2022-09-09T07:51:35;13.15;;;7.63;;
55146;SDS011;41039;49.830;23.988;2022-09-09T07:54:02;10.07;;;7.25;;
55146;SDS011;41039;49.830;23.988;2022-09-09T07:56:28;12.88;;;8.73;;
55146;SDS011;41039;49.830;23.988;2022-09-09T07:58:54;14.65;;;8.35;;
55146;SDS011;41039;49.830;23.988;2022-09-09T08:01:24;11.25;;;7.10;;
55146;SDS011;41039;49.830;23.988;2022-09-09T08:03:56;12.10;;;7.93;;
55146;SDS011;41039;49.830;23.988;2022-09-09T08:06:24;12.68;;;8.02;;
55146;SDS011;41039;49.830;23.988;2022-09-09T08:08:50;10.02;;;7.75;;
55146;SDS011;41039;49.830;23.988;2022-09-09T08:11:16;13.30;;;9.00;;
55146;SDS011;41039;49.830;23.988;2022-09-09T08:13:41;11.05;;;7.72;;
55146;SDS011;41039;49.830;23.988;2022-09-09T08:16:14;11.63;;;7.45;;
55146;SDS011;41039;49.830;23.988;2022-09-09T08:18:40;14.13;;;8.35;;
55146;SDS011;41039;49.830;23.988;2022-09-09T08:21:10;12.77;;;8.85;;
55146;SDS011;41039;49.830;23.988;2022-09-09T08:23:41;13.48;;;8.07;;
55146;SDS011;41039;49.830;23.988;2022-09-09T08:26:09;13.30;;;8.23;;
55146;SDS011;41039;49.830;23.988;2022-09-09T08:28:35;16.80;;;9.05;;
55146;SDS011;41039;49.830;23.988;2022-09-09T08:31:17;15.35;;;8.50;;
55146;SDS011;41039;49.830;23.988;2022-09-09T08:33:43;15.73;;;8.30;;
55146;SDS011;41039;49.830;23.988;2022-09-09T08:36:11;16.05;;;9.57;;
55146;SDS011;41039;49.830;23.988;2022-09-09T08:38:36;12.52;;;8.18;;
55146;SDS011;41039;49.830;23.988;2022-09-09T08:43:39;13.68;;;8.02;;
55146;SDS011;41039;49.830;23.988;2022-09-09T08:48:37;16.73;;;11.38;;
55146;SDS011;41039;49.830;23.988;2022-09-09T08:51:06;16.10;;;10.98;;
55146;SDS011;41039;49.830;23.988;2022-09-09T08:53:40;16.15;;;9.07;;
55146;SDS011;41039;49.830;23.988;2022-09-09T08:56:11;12.68;;;8.25;;
55146;SDS011;41039;49.830;23.988;2022-09-09T08:58:48;14.05;;;9.23;;
55146;SDS011;41039;49.830;23.988;2022-09-09T09:06:25;13.35;;;8.07;;
55146;SDS011;41039;49.830;23.988;2022-09-09T09:08:58;13.45;;;8.48;;
55146;SDS011;41039;49.830;23.988;2022-09-09T09:11:25;13.80;;;8.73;;
55146;SDS011;41039;49.830;23.988;2022-09-09T09:16:21;14.50;;;8.97;;
55146;SDS011;41039;49.830;23.988;2022-09-09T09:18:48;14.02;;;8.98;;
55146;SDS011;41039;49.830;23.988;2022-09-09T09:21:16;13.02;;;8.20;;
55146;SDS011;41039;49.830;23.988;2022-09-09T09:23:46;11.48;;;8.35;;
55146;SDS011;41039;49.830;23.988;2022-09-09T09:26:13;14.13;;;8.45;;
55146;SDS011;41039;49.830;23.988;2022-09-09T09:28:39;10.90;;;7.65;;
55146;SDS011;41039;49.830;23.988;2022-09-09T09:31:06;13.50;;;8.52;;
55146;SDS011;41039;49.830;23.988;2022-09-09T09:33:42;13.82;;;8.30;;
55146;SDS011;41039;49.830;23.988;2022-09-09T09:36:11;12.30;;;8.00;;
55146;SDS011;41039;49.830;23.988;2022-09-09T09:38:39;15.13;;;9.32;;
55146;SDS011;41039;49.830;23.988;2022-09-09T09:41:05;15.25;;;8.45;;
55146;SDS011;41039;49.830;23.988;2022-09-09T09:43:31;12.20;;;7.30;;
55146;SDS011;41039;49.830;23.988;2022-09-09T09:45:56;12.73;;;8.13;;
55146;SDS011;41039;49.830;23.988;2022-09-09T09:48:26;16.35;;;8.85;;
55146;SDS011;41039;49.830;23.988;2022-09-09T09:50:52;17.88;;;8.63;;
55146;SDS011;41039;49.830;23.988;2022-09-09T09:53:23;21.40;;;9.80;;
55146;SDS011;41039;49.830;23.988;2022-09-09T09:56:10;13.95;;;9.23;;
55146;SDS011;41039;49.830;23.988;2022-09-09T10:06:38;15.23;;;9.20;;
55146;SDS011;41039;49.830;23.988;2022-09-09T10:09:18;12.98;;;8.20;;
55146;SDS011;41039;49.830;23.988;2022-09-09T10:11:52;14.52;;;9.75;;
55146;SDS011;41039;49.830;23.988;2022-09-09T10:14:21;15.52;;;9.10;;
55146;SDS011;41039;49.830;23.988;2022-09-09T10:19:34;12.88;;;9.10;;
55146;SDS011;41039;49.830;23.988;2022-09-09T10:22:04;13.00;;;9.00;;
55146;SDS011;41039;49.830;23.988;2022-09-09T10:24:36;13.77;;;9.33;;
55146;SDS011;41039;49.830;23.988;2022-09-09T10:35:02;15.48;;;9.63;;
55146;SDS011;41039;49.830;23.988;2022-09-09T10:39:59;12.60;;;9.10;;
55146;SDS011;41039;49.830;23.988;2022-09-09T10:42:26;13.07;;;8.88;;
55146;SDS011;41039;49.830;23.988;2022-09-09T10:45:05;14.77;;;9.07;;
55146;SDS011;41039;49.830;23.988;2022-09-09T10:57:29;11.90;;;9.38;;
55146;SDS011;41039;49.830;23.988;2022-09-09T10:59:57;15.07;;;9.25;;
55146;SDS011;41039;49.830;23.988;2022-09-09T11:02:28;14.63;;;12.88;;
55146;SDS011;41039;49.830;23.988;2022-09-09T11:05:02;15.02;;;10.00;;
55146;SDS011;41039;49.830;23.988;2022-09-09T11:10:05;16.48;;;9.70;;
55146;SDS011;41039;49.830;23.988;2022-09-09T11:12:31;16.38;;;10.07;;
55146;SDS011;41039;49.830;23.988;2022-09-09T11:15:04;15.60;;;10.00;;
55146;SDS011;41039;49.830;23.988;2022-09-09T11:17:38;17.27;;;10.40;;
55146;SDS011;41039;49.830;23.988;2022-09-09T11:20:05;14.18;;;10.00;;
55146;SDS011;41039;49.830;23.988;2022-09-09T11:22:33;13.02;;;9.15;;
55146;SDS011;41039;49.830;23.988;2022-09-09T11:25:00;15.23;;;10.85;;
55146;SDS011;41039;49.830;23.988;2022-09-09T11:40:56;13.15;;;9.93;;
55146;SDS011;41039;49.830;23.988;2022-09-09T11:43:25;15.52;;;12.68;;
55146;SDS011;41039;49.830;23.988;2022-09-09T11:45:52;17.50;;;13.02;;
55146;SDS011;41039;49.830;23.988;2022-09-09T11:48:26;14.88;;;10.65;;
55146;SDS011;41039;49.830;23.988;2022-09-09T11:51:27;14.60;;;10.27;;
55146;SDS011;41039;49.830;23.988;2022-09-09T11:53:52;14.25;;;9.65;;
55146;SDS011;41039;49.830;23.988;2022-09-09T11:56:50;16.30;;;10.00;;
55146;SDS011;41039;49.830;23.988;2022-09-09T11:59:24;15.38;;;9.98;;
55146;SDS011;41039;49.830;23.988;2022-09-09T12:01:54;15.13;;;10.48;;
55146;SDS011;41039;49.830;23.988;2022-09-09T12:06:54;13.05;;;10.02;;
55146;SDS011;41039;49.830;23.988;2022-09-09T12:09:28;16.67;;;12.13;;
55146;SDS011;41039;49.830;23.988;2022-09-09T12:12:04;13.27;;;11.90;;
55146;SDS011;41039;49.830;23.988;2022-09-09T12:14:44;14.40;;;10.90;;
55146;SDS011;41039;49.830;23.988;2022-09-09T12:17:19;16.80;;;13.13;;
55146;SDS011;41039;49.830;23.988;2022-09-09T12:19:45;15.50;;;11.02;;
55146;SDS011;41039;49.830;23.988;2022-09-09T12:24:59;14.38;;;11.23;;
55146;SDS011;41039;49.830;23.988;2022-09-09T12:27:28;13.00;;;9.90;;
55146;SDS011;41039;49.830;23.988;2022-09-09T12:30:09;15.43;;;11.02;;
55146;SDS011;41039;49.830;23.988;2022-09-09T12:32:35;13.50;;;10.23;;
55146;SDS011;41039;49.830;23.988;2022-09-09T12:35:03;13.75;;;10.50;;
55146;SDS011;41039;49.830;23.988;2022-09-09T12:37:45;13.23;;;10.13;;
55146;SDS011;41039;49.830;23.988;2022-09-09T12:40:21;15.20;;;10.57;;
55146;SDS011;41039;49.830;23.988;2022-09-09T12:45:19;10.93;;;8.93;;
55146;SDS011;41039;49.830;23.988;2022-09-09T12:47:47;15.15;;;11.15;;
55146;SDS011;41039;49.830;23.988;2022-09-09T12:50:17;12.98;;;10.57;;
55146;SDS011;41039;49.830;23.988;2022-09-09T12:52:43;14.07;;;11.70;;
55146;SDS011;41039;49.830;23.988;2022-09-09T12:55:16;14.73;;;11.85;;
55146;SDS011;41039;49.830;23.988;2022-09-09T12:57:42;12.13;;;10.13;;
55146;SDS011;41039;49.830;23.988;2022-09-09T13:00:14;13.13;;;11.55;;
55146;SDS011;41039;49.830;23.988;2022-09-09T13:02:47;13.75;;;11.32;;
55146;SDS011;41039;49.830;23.988;2022-09-09T13:05:15;16.38;;;11.80;;
55146;SDS011;41039;49.830;23.988;2022-09-09T13:07:41;15.82;;;12.65;;
55146;SDS011;41039;49.830;23.988;2022-09-09T13:10:10;16.83;;;12.50;;
55146;SDS011;41039;49.830;23.988;2022-09-09T13:12:35;14.98;;;11.85;;
55146;SDS011;41039;49.830;23.988;2022-09-09T13:15:00;12.77;;;10.82;;
55146;SDS011;41039;49.830;23.988;2022-09-09T13:17:27;15.35;;;11.02;;
55146;SDS011;41039;49.830;23.988;2022-09-09T13:19:54;15.15;;;11.60;;
55146;SDS011;41039;49.830;23.988;2022-09-09T13:22:29;17.23;;;12.88;;
55146;SDS011;41039;49.830;23.988;2022-09-09T13:24:59;14.80;;;12.20;;
55146;SDS011;41039;49.830;23.988;2022-09-09T13:27:29;15.68;;;13.32;;
55146;SDS011;41039;49.830;23.988;2022-09-09T13:29:55;19.73;;;15.43;;
55146;SDS011;41039;49.830;23.988;2022-09-09T13:32:22;16.25;;;13.68;;
55146;SDS011;41039;49.830;23.988;2022-09-09T13:34:55;17.10;;;13.30;;
55146;SDS011;41039;49.830;23.988;2022-09-09T13:37:39;17.08;;;13.25;;
55146;SDS011;41039;49.830;23.988;2022-09-09T13:40:06;18.80;;;13.23;;
55146;SDS011;41039;49.830;23.988;2022-09-09T13:42:32;19.10;;;13.60;;
55146;SDS011;41039;49.830;23.988;2022-09-09T13:45:00;16.05;;;13.82;;
55146;SDS011;41039;49.830;23.988;2022-09-09T13:47:33;20.73;;;12.55;;
55146;SDS011;41039;49.830;23.988;2022-09-09T13:50:09;16.00;;;12.23;;
55146;SDS011;41039;49.830;23.988;2022-09-09T13:52:35;14.60;;;12.70;;
55146;SDS011;41039;49.830;23.988;2022-09-09T13:55:00;18.67;;;13.98;;
55146;SDS011;41039;49.830;23.988;2022-09-09T13:57:26;17.00;;;12.85;;
55146;SDS011;41039;49.830;23.988;2022-09-09T13:59:52;18.88;;;12.90;;
55146;SDS011;41039;49.830;23.988;2022-09-09T14:02:19;17.85;;;12.85;;
55146;SDS011;41039;49.830;23.988;2022-09-09T14:04:46;16.60;;;12.48;;
55146;SDS011;41039;49.830;23.988;2022-09-09T14:07:15;19.88;;;13.88;;
55146;SDS011;41039;49.830;23.988;2022-09-09T14:09:41;17.05;;;13.05;;
55146;SDS011;41039;49.830;23.988;2022-09-09T14:12:10;19.15;;;15.15;;
55146;SDS011;41039;49.830;23.988;2022-09-09T14:14:36;21.80;;;17.55;;
55146;SDS011;41039;49.830;23.988;2022-09-09T14:17:01;17.47;;;13.90;;
55146;SDS011;41039;49.830;23.988;2022-09-09T14:19:26;18.77;;;15.10;;
55146;SDS011;41039;49.830;23.988;2022-09-09T14:21:51;19.00;;;15.15;;
55146;SDS011;41039;49.830;23.988;2022-09-09T14:24:17;15.75;;;13.25;;
55146;SDS011;41039;49.830;23.988;2022-09-09T14:26:42;18.45;;;14.60;;
55146;SDS011;41039;49.830;23.988;2022-09-09T14:29:07;17.63;;;13.02;;
55146;SDS011;41039;49.830;23.988;2022-09-09T14:31:32;19.33;;;14.80;;
55146;SDS011;41039;49.830;23.988;2022-09-09T14:33:58;18.17;;;14.25;;
55146;SDS011;41039;49.830;23.988;2022-09-09T14:36:24;17.75;;;14.05;;
55146;SDS011;41039;49.830;23.988;2022-09-09T14:38:49;19.52;;;13.75;;
55146;SDS011;41039;49.830;23.988;2022-09-09T14:41:16;17.45;;;14.50;;
55146;SDS011;41039;49.830;23.988;2022-09-09T14:43:41;19.45;;;14.98;;
55146;SDS011;41039;49.830;23.988;2022-09-09T14:46:08;18.55;;;15.45;;
55146;SDS011;41039;49.830;23.988;2022-09-09T14:48:33;22.35;;;16.50;;
55146;SDS011;41039;49.830;23.988;2022-09-09T14:51:13;18.65;;;14.65;;
55146;SDS011;41039;49.830;23.988;2022-09-09T14:53:39;18.52;;;16.30;;
55146;SDS011;41039;49.830;23.988;2022-09-09T14:56:16;19.00;;;15.75;;
55146;SDS011;41039;49.830;23.988;2022-09-09T14:58:41;20.95;;;15.18;;
55146;SDS011;41039;49.830;23.988;2022-09-09T15:01:08;18.17;;;14.60;;
55146;SDS011;41039;49.830;23.988;2022-09-09T15:03:35;17.83;;;13.65;;
55146;SDS011;41039;49.830;23.988;2022-09-09T15:06:07;19.02;;;15.75;;
55146;SDS011;41039;49.830;23.988;2022-09-09T15:08:34;19.88;;;16.58;;
55146;SDS011;41039;49.830;23.988;2022-09-09T15:11:00;22.20;;;17.33;;
55146;SDS011;41039;49.830;23.988;2022-09-09T15:13:26;20.25;;;16.77;;
55146;SDS011;41039;49.830;23.988;2022-09-09T15:15:51;22.92;;;18.08;;
55146;SDS011;41039;49.830;23.988;2022-09-09T15:18:16;21.52;;;17.20;;
55146;SDS011;41039;49.830;23.988;2022-09-09T15:20:44;23.73;;;18.85;;
55146;SDS011;41039;49.830;23.988;2022-09-09T15:23:11;23.63;;;19.65;;
55146;SDS011;41039;49.830;23.988;2022-09-09T15:25:36;24.67;;;19.23;;
55146;SDS011;41039;49.830;23.988;2022-09-09T15:28:01;23.43;;;18.43;;
55146;SDS011;41039;49.830;23.988;2022-09-09T15:30:27;28.45;;;19.70;;
55146;SDS011;41039;49.830;23.988;2022-09-09T15:32:52;24.27;;;18.30;;
55146;SDS011;41039;49.830;23.988;2022-09-09T15:35:18;23.45;;;18.88;;
55146;SDS011;41039;49.830;23.988;2022-09-09T15:37:43;23.02;;;19.30;;
55146;SDS011;41039;49.830;23.988;2022-09-09T15:40:10;24.52;;;18.25;;
55146;SDS011;41039;49.830;23.988;2022-09-09T15:42:35;26.48;;;20.02;;
55146;SDS011;41039;49.830;23.988;2022-09-09T15:45:00;24.47;;;19.63;;
55146;SDS011;41039;49.830;23.988;2022-09-09T15:47:25;26.63;;;17.95;;
55146;SDS011;41039;49.830;23.988;2022-09-09T15:49:51;22.80;;;17.77;;
55146;SDS011;41039;49.830;23.988;2022-09-09T15:52:17;27.98;;;21.10;;
55146;SDS011;41039;49.830;23.988;2022-09-09T15:54:42;22.83;;;18.17;;
55146;SDS011;41039;49.830;23.988;2022-09-09T15:57:11;21.75;;;17.25;;
55146;SDS011;41039;49.830;23.988;2022-09-09T15:59:37;22.88;;;18.30;;
55146;SDS011;41039;49.830;23.988;2022-09-09T16:02:02;24.77;;;18.17;;
55146;SDS011;41039;49.830;23.988;2022-09-09T16:04:28;19.52;;;16.25;;
55146;SDS011;41039;49.830;23.988;2022-09-09T16:06:58;23.58;;;17.27;;
55146;SDS011;41039;49.830;23.988;2022-09-09T16:09:24;24.27;;;18.65;;
55146;SDS011;41039;49.830;23.988;2022-09-09T16:11:49;28.17;;;20.83;;
55146;SDS011;41039;49.830;23.988;2022-09-09T16:14:14;24.40;;;19.25;;
55146;SDS011;41039;49.830;23.988;2022-09-09T16:16:43;25.95;;;20.35;;
55146;SDS011;41039;49.830;23.988;2022-09-09T16:19:09;23.95;;;19.20;;
55146;SDS011;41039;49.830;23.988;2022-09-09T16:21:36;22.77;;;18.90;;